Time;durP1;ratioP1;P1;durP2;ratioP2;P2;SDS_P1;SDS_P2;PMS_P1;PMS_P2;Temp;Humidity;BMP_temperature;BMP_pressure;BME280_temperature;BME280_humidity;BME280_pressure;Samples;Min_cycle;Max_cycle;Signal;HPM_P1;HPM_P2
2021/09/04 00:00:13;;;;;;;26.05;16.77;;;15.70;86.30;;;;;;5053565;28;20024;-47
2021/09/04 00:02:39;;;;;;;33.50;16.90;;;15.70;86.40;;;;;;5053464;28;20047;-46
2021/09/04 00:05:05;;;;;;;33.45;18.08;;;15.60;86.80;;;;;;5053436;28;20028;-47
2021/09/04 00:07:32;;;;;;;34.22;16.65;;;15.50;86.80;;;;;;5053495;28;20396;-48
2021/09/04 00:09:58;;;;;;;32.08;16.08;;;15.50;87.10;;;;;;5053169;28;20082;-47
2021/09/04 00:12:25;;;;;;;33.95;16.92;;;15.50;87.10;;;;;;5053553;28;20472;-46
2021/09/04 00:14:51;;;;;;;30.30;17.52;;;15.50;87.30;;;;;;5053165;28;20033;-48
2021/09/04 00:17:17;;;;;;;33.25;17.65;;;15.40;87.20;;;;;;5053092;28;20060;-46
2021/09/04 00:19:43;;;;;;;34.08;18.20;;;15.30;87.60;;;;;;5053201;28;20032;-47
2021/09/04 00:22:08;;;;;;;38.63;18.45;;;15.40;87.50;;;;;;5053341;28;20029;-51
2021/09/04 00:24:34;;;;;;;32.42;19.10;;;15.40;87.60;;;;;;5053279;28;20017;-46
2021/09/04 00:27:00;;;;;;;36.28;18.73;;;15.30;87.80;;;;;;5051645;28;20025;-49
2021/09/04 00:29:26;;;;;;;32.53;19.20;;;15.30;87.90;;;;;;5053282;28;20028;-46
2021/09/04 00:31:52;;;;;;;36.78;18.25;;;15.30;88.10;;;;;;5053153;28;20369;-52
2021/09/04 00:34:17;;;;;;;37.83;20.83;;;15.30;88.00;;;;;;5052938;28;20025;-50
2021/09/04 00:36:43;;;;;;;42.75;19.08;;;15.30;88.10;;;;;;5053316;28;20033;-48
2021/09/04 00:39:09;;;;;;;34.50;18.88;;;15.20;88.10;;;;;;5052972;28;20036;-47
2021/09/04 00:41:35;;;;;;;36.45;19.08;;;15.20;88.20;;;;;;5052794;28;20154;-47
2021/09/04 00:44:05;;;;;;;36.13;21.20;;;15.20;88.10;;;;;;5052734;28;20035;-46
2021/09/04 00:46:31;;;;;;;42.88;20.42;;;15.10;88.60;;;;;;5052594;28;20060;-48
2021/09/04 00:48:57;;;;;;;37.08;20.63;;;15.10;88.80;;;;;;5052628;28;20033;-47
2021/09/04 00:51:23;;;;;;;42.00;21.13;;;15.10;88.70;;;;;;5052601;28;20021;-48
2021/09/04 00:53:50;;;;;;;33.60;20.08;;;15.00;88.70;;;;;;5051106;28;20377;-48
2021/09/04 00:56:16;;;;;;;34.03;20.00;;;15.00;89.00;;;;;;5052543;28;20027;-46
2021/09/04 00:58:43;;;;;;;39.38;21.13;;;15.10;88.80;;;;;;5052308;28;20041;-51
2021/09/04 01:01:08;;;;;;;40.28;21.05;;;15.00;88.90;;;;;;5052793;28;20457;-47
2021/09/04 01:03:34;;;;;;;38.42;20.80;;;15.00;88.90;;;;;;5052357;28;20104;-47
2021/09/04 01:06:00;;;;;;;39.13;20.75;;;14.90;89.10;;;;;;5052351;28;20473;-47
2021/09/04 01:08:26;;;;;;;41.10;22.00;;;14.90;89.10;;;;;;5052241;28;20029;-47
2021/09/04 01:10:53;;;;;;;43.78;23.15;;;14.90;89.00;;;;;;5052232;28;20108;-47
2021/09/04 01:13:20;;;;;;;42.20;21.45;;;14.80;89.10;;;;;;5050712;28;20067;-48
2021/09/04 01:15:46;;;;;;;43.22;24.45;;;14.80;89.40;;;;;;5053036;28;20033;-48
2021/09/04 01:18:12;;;;;;;38.75;20.92;;;14.80;89.50;;;;;;5052664;28;20339;-47
2021/09/04 01:20:37;;;;;;;41.85;22.08;;;14.80;89.60;;;;;;5052357;28;20101;-46
2021/09/04 01:23:04;;;;;;;45.78;23.52;;;14.70;89.60;;;;;;5052455;28;20025;-51
2021/09/04 01:25:31;;;;;;;42.47;22.45;;;14.70;89.70;;;;;;5052489;28;20025;-47
2021/09/04 01:27:59;;;;;;;44.70;22.27;;;14.70;89.60;;;;;;5052159;28;20029;-49
2021/09/04 01:30:25;;;;;;;41.58;22.55;;;14.70;89.60;;;;;;5052018;28;20025;-47
2021/09/04 01:32:50;;;;;;;43.80;22.58;;;14.70;89.80;;;;;;5052225;28;20036;-50
2021/09/04 01:35:23;;;;;;;43.15;21.17;;;14.60;89.70;;;;;;5052049;28;20101;-50
2021/09/04 01:37:49;;;;;;;40.20;22.58;;;14.60;89.80;;;;;;5050696;28;20116;-50
2021/09/04 01:40:16;;;;;;;45.13;23.23;;;14.60;89.80;;;;;;5053048;28;20526;-47
2021/09/04 01:42:44;;;;;;;39.97;22.38;;;14.50;89.90;;;;;;5053138;28;20024;-48
2021/09/04 01:45:10;;;;;;;52.25;25.65;;;14.50;90.10;;;;;;5052288;28;20068;-47
2021/09/04 01:47:36;;;;;;;43.00;23.58;;;14.50;90.10;;;;;;5052119;28;20348;-47
2021/09/04 01:50:03;;;;;;;47.88;23.63;;;14.40;90.10;;;;;;5052325;28;20088;-47
2021/09/04 01:52:29;;;;;;;47.58;24.42;;;14.40;90.10;;;;;;5052198;28;20033;-48
2021/09/04 01:54:55;;;;;;;40.97;24.40;;;14.30;90.30;;;;;;5052178;28;20112;-46
2021/09/04 01:57:20;;;;;;;42.40;23.50;;;14.30;90.50;;;;;;5051973;28;20112;-49
2021/09/04 01:59:46;;;;;;;43.38;25.50;;;14.40;90.30;;;;;;5051678;28;20057;-49
2021/09/04 02:02:12;;;;;;;42.13;23.83;;;14.40;90.40;;;;;;5051769;28;20467;-48
2021/09/04 02:04:38;;;;;;;45.92;25.35;;;14.30;90.30;;;;;;5052267;28;20032;-46
2021/09/04 02:07:04;;;;;;;49.20;25.63;;;14.30;90.20;;;;;;5054856;28;20025;-47
2021/09/04 02:09:30;;;;;;;44.30;22.63;;;14.20;90.50;;;;;;5055519;28;20033;-49
2021/09/04 02:11:56;;;;;;;49.20;24.90;;;14.20;90.70;;;;;;5054229;28;20063;-47
2021/09/04 02:14:22;;;;;;;43.30;24.50;;;14.10;90.70;;;;;;5054000;28;20033;-47
2021/09/04 02:16:48;;;;;;;50.50;25.63;;;14.10;91.00;;;;;;5055613;28;20029;-46
2021/09/04 02:19:14;;;;;;;44.67;24.75;;;14.10;90.80;;;;;;5055275;28;20040;-47
2021/09/04 02:21:39;;;;;;;52.33;23.65;;;14.20;90.70;;;;;;5055601;28;20132;-45
2021/09/04 02:24:05;;;;;;;58.90;26.92;;;14.10;90.80;;;;;;5055364;28;20036;-49
2021/09/04 02:26:31;;;;;;;42.00;23.92;;;14.00;90.80;;;;;;5055691;28;20416;-46
2021/09/04 02:28:58;;;;;;;48.58;25.23;;;13.90;91.00;;;;;;5055903;28;20495;-46
2021/09/04 02:31:24;;;;;;;41.35;23.80;;;13.90;90.90;;;;;;5055427;28;20025;-49
2021/09/04 02:33:53;;;;;;;48.28;25.30;;;13.90;90.90;;;;;;5055236;28;20056;-48
2021/09/04 02:36:19;;;;;;;46.88;25.35;;;13.90;91.10;;;;;;5055178;28;20393;-47
2021/09/04 02:38:46;;;;;;;50.25;26.70;;;13.90;90.90;;;;;;5054831;28;20025;-45
2021/09/04 02:41:12;;;;;;;48.05;23.48;;;13.90;90.70;;;;;;5055118;28;20060;-46
2021/09/04 02:43:38;;;;;;;47.72;24.48;;;13.90;90.90;;;;;;5055476;28;20483;-45
2021/09/04 02:46:04;;;;;;;53.30;27.15;;;13.90;91.00;;;;;;5054820;28;20025;-46
2021/09/04 02:48:30;;;;;;;46.13;24.17;;;13.90;90.90;;;;;;5053511;28;20032;-49
2021/09/04 02:50:55;;;;;;;52.25;25.98;;;13.90;90.50;;;;;;5054885;28;20442;-45
2021/09/04 02:53:21;;;;;;;46.60;23.90;;;13.80;90.50;;;;;;5054704;28;20508;-49
2021/09/04 02:55:47;;;;;;;44.53;23.15;;;13.70;90.70;;;;;;5054868;28;20384;-49
2021/09/04 02:58:12;;;;;;;60.13;26.60;;;13.70;90.70;;;;;;5054384;28;20053;-46
2021/09/04 03:00:38;;;;;;;41.75;24.52;;;13.70;90.70;;;;;;5054613;28;20028;-53
2021/09/04 03:03:04;;;;;;;49.13;24.70;;;13.70;90.50;;;;;;5054808;28;20060;-46
2021/09/04 03:05:31;;;;;;;41.85;23.15;;;13.70;90.50;;;;;;5055411;28;20342;-47
2021/09/04 03:07:57;;;;;;;35.30;21.98;;;13.70;90.60;;;;;;5054709;28;20033;-46
2021/09/04 03:10:23;;;;;;;41.75;21.67;;;13.80;90.40;;;;;;5054971;28;20075;-47
2021/09/04 03:12:49;;;;;;;46.33;23.75;;;13.90;89.90;;;;;;5053137;28;20025;-48
2021/09/04 03:15:15;;;;;;;47.35;24.50;;;13.80;89.80;;;;;;5054339;28;20025;-46
2021/09/04 03:17:40;;;;;;;42.28;22.60;;;13.80;90.00;;;;;;5054316;28;20060;-47
2021/09/04 03:20:07;;;;;;;44.42;24.80;;;13.80;90.10;;;;;;5054528;28;20090;-48
2021/09/04 03:22:32;;;;;;;40.90;22.88;;;13.90;89.80;;;;;;5054467;28;20488;-47
2021/09/04 03:24:58;;;;;;;46.30;25.58;;;13.80;89.70;;;;;;5054195;28;20063;-47
2021/09/04 03:27:23;;;;;;;48.75;26.08;;;13.80;89.80;;;;;;5054130;28;20025;-46
2021/09/04 03:29:49;;;;;;;47.45;23.38;;;13.70;90.10;;;;;;5054400;28;20029;-46
2021/09/04 03:32:15;;;;;;;43.30;24.50;;;13.80;89.90;;;;;;5053998;28;20104;-48
2021/09/04 03:34:40;;;;;;;49.20;26.00;;;13.80;89.90;;;;;;5054357;28;20468;-47
2021/09/04 03:37:06;;;;;;;43.08;24.98;;;13.70;90.10;;;;;;5054362;28;20473;-47
2021/09/04 03:39:32;;;;;;;44.83;25.55;;;13.70;90.40;;;;;;5053843;28;20025;-48
2021/09/04 03:41:57;;;;;;;45.65;24.70;;;13.80;90.40;;;;;;5053872;28;20101;-49
2021/09/04 03:44:23;;;;;;;48.25;24.35;;;13.80;89.80;;;;;;5053931;28;20098;-51
2021/09/04 03:46:49;;;;;;;50.92;26.08;;;13.80;89.70;;;;;;5053472;28;20100;-49
2021/09/04 03:49:14;;;;;;;47.95;26.00;;;13.70;90.20;;;;;;5053638;28;20025;-49
2021/09/04 03:51:42;;;;;;;48.30;26.88;;;13.60;90.70;;;;;;5053650;28;20472;-49
2021/09/04 03:54:07;;;;;;;49.08;26.25;;;13.60;90.60;;;;;;5052034;28;20025;-47
2021/09/04 03:56:33;;;;;;;57.55;26.40;;;13.50;90.90;;;;;;5053587;28;20035;-46
2021/09/04 03:58:59;;;;;;;49.78;27.45;;;13.50;91.20;;;;;;5053091;28;20132;-48
2021/09/04 04:01:24;;;;;;;52.90;26.73;;;13.50;91.00;;;;;;5053451;28;20040;-47
2021/09/04 04:03:50;;;;;;;58.75;27.92;;;13.60;90.90;;;;;;5053521;28;20025;-46
2021/09/04 04:06:16;;;;;;;52.20;28.70;;;13.60;90.90;;;;;;5053243;28;20023;-47
2021/09/04 04:08:42;;;;;;;60.33;29.83;;;13.60;90.90;;;;;;5053529;28;20437;-46
2021/09/04 04:11:09;;;;;;;52.78;27.67;;;13.60;90.80;;;;;;5053285;28;20078;-46
2021/09/04 04:13:35;;;;;;;61.03;30.90;;;13.50;90.80;;;;;;5051846;28;20078;-50
2021/09/04 04:16:02;;;;;;;52.83;28.27;;;13.60;91.00;;;;;;5053028;28;20037;-46
2021/09/04 04:18:27;;;;;;;58.30;28.98;;;13.60;91.00;;;;;;5053231;28;20076;-48
2021/09/04 04:20:53;;;;;;;62.17;31.17;;;13.50;91.10;;;;;;5052920;28;20051;-47
2021/09/04 04:23:19;;;;;;;58.58;28.65;;;13.50;91.50;;;;;;5053001;28;20048;-47
2021/09/04 04:25:44;;;;;;;59.40;32.00;;;13.50;91.40;;;;;;5051665;28;20021;-46
2021/09/04 04:28:10;;;;;;;57.47;29.90;;;13.50;91.60;;;;;;5051117;28;20121;-46
2021/09/04 04:30:35;;;;;;;64.75;30.92;;;13.50;91.50;;;;;;5052876;28;20028;-47
2021/09/04 04:33:01;;;;;;;62.78;32.47;;;13.50;91.60;;;;;;5052741;28;20025;-48
2021/09/04 04:35:27;;;;;;;73.10;34.70;;;13.40;91.70;;;;;;5053035;28;20020;-49
2021/09/04 04:37:52;;;;;;;70.50;33.40;;;13.60;91.50;;;;;;5052825;28;20024;-47
2021/09/04 04:40:18;;;;;;;69.25;32.78;;;13.50;91.60;;;;;;5052896;28;20036;-48
2021/09/04 04:42:44;;;;;;;74.22;34.58;;;13.40;91.90;;;;;;5053015;28;20403;-47
2021/09/04 04:45:10;;;;;;;73.18;34.72;;;13.40;91.80;;;;;;5053014;28;20465;-47
2021/09/04 04:47:35;;;;;;;66.70;32.38;;;13.40;91.90;;;;;;5052657;28;20029;-50
2021/09/04 04:50:01;;;;;;;79.55;35.85;;;13.50;91.80;;;;;;5052881;28;20021;-46
2021/09/04 04:52:27;;;;;;;74.00;36.28;;;13.50;91.80;;;;;;5052490;28;20469;-49
2021/09/04 04:54:53;;;;;;;70.75;32.83;;;13.50;91.70;;;;;;5052746;28;20373;-48
2021/09/04 04:57:18;;;;;;;79.40;35.85;;;13.40;91.90;;;;;;5052916;28;20025;-48
2021/09/04 04:59:44;;;;;;;81.35;36.50;;;13.30;92.20;;;;;;5052440;28;20108;-50
2021/09/04 05:02:10;;;;;;;67.57;34.47;;;13.30;92.20;;;;;;5052515;28;20086;-47
2021/09/04 05:04:36;;;;;;;81.32;38.95;;;13.30;92.30;;;;;;5053093;28;20044;-46
2021/09/04 05:07:02;;;;;;;79.13;36.13;;;13.30;92.50;;;;;;5052961;28;20075;-48
2021/09/04 05:09:27;;;;;;;73.13;35.10;;;13.30;92.50;;;;;;5052506;28;20476;-46
2021/09/04 05:11:53;;;;;;;69.43;32.60;;;13.30;92.50;;;;;;5052929;28;20376;-50
2021/09/04 05:14:19;;;;;;;85.95;36.78;;;13.30;92.30;;;;;;5051674;28;20503;-48
2021/09/04 05:16:46;;;;;;;78.63;34.80;;;13.30;92.30;;;;;;5052659;28;20052;-47
2021/09/04 05:19:11;;;;;;;70.85;34.25;;;13.30;92.20;;;;;;5052612;28;20100;-49
2021/09/04 05:21:37;;;;;;;78.25;35.90;;;13.30;92.40;;;;;;5052801;28;20108;-48
2021/09/04 05:24:03;;;;;;;60.47;31.50;;;13.30;92.20;;;;;;5052437;28;20116;-47
2021/09/04 05:26:29;;;;;;;61.85;30.65;;;13.30;92.10;;;;;;5052365;28;20173;-46
2021/09/04 05:28:54;;;;;;;74.70;32.13;;;13.30;92.10;;;;;;5052394;28;20104;-50
2021/09/04 05:31:20;;;;;;;62.05;29.65;;;13.30;92.00;;;;;;5052647;28;20411;-47
2021/09/04 05:33:45;;;;;;;69.00;31.60;;;13.30;91.80;;;;;;5052482;28;20095;-48
2021/09/04 05:36:11;;;;;;;76.60;34.47;;;13.30;91.80;;;;;;5052230;28;20075;-46
2021/09/04 05:38:37;;;;;;;71.28;31.27;;;13.40;91.70;;;;;;5052702;28;20108;-47
2021/09/04 05:41:04;;;;;;;62.13;30.00;;;13.30;91.60;;;;;;5053958;28;20060;-47
2021/09/04 05:43:30;;;;;;;63.17;29.92;;;13.30;91.50;;;;;;5054717;28;20031;-47
2021/09/04 05:45:55;;;;;;;58.92;28.73;;;13.20;91.90;;;;;;5056006;28;20109;-47
2021/09/04 05:48:21;;;;;;;50.83;26.60;;;13.20;92.10;;;;;;5056068;28;20056;-45
2021/09/04 05:50:47;;;;;;;52.85;26.83;;;13.10;92.30;;;;;;5056180;28;20025;-47
2021/09/04 05:53:13;;;;;;;52.90;27.02;;;13.00;92.40;;;;;;5055865;28;20071;-48
2021/09/04 05:55:39;;;;;;;47.90;25.27;;;12.90;92.60;;;;;;5056410;28;20163;-46
2021/09/04 05:58:05;;;;;;;53.05;25.85;;;12.90;92.70;;;;;;5055369;28;20071;-48
2021/09/04 06:00:30;;;;;;;56.85;25.50;;;12.80;93.00;;;;;;5055795;28;20025;-46
2021/09/04 06:02:56;;;;;;;51.00;24.67;;;12.80;93.20;;;;;;5054785;28;20096;-46
2021/09/04 06:05:22;;;;;;;54.47;25.58;;;12.80;93.00;;;;;;5055665;28;20025;-45
2021/09/04 06:07:48;;;;;;;54.95;28.00;;;12.80;92.90;;;;;;5055893;28;20032;-46
2021/09/04 06:10:13;;;;;;;50.70;24.33;;;12.90;93.20;;;;;;5055600;28;20057;-46
2021/09/04 06:12:39;;;;;;;49.22;24.67;;;12.80;93.20;;;;;;5055654;28;20103;-45
2021/09/04 06:15:05;;;;;;;54.50;26.75;;;13.00;93.30;;;;;;5055713;28;20448;-47
2021/09/04 06:17:31;;;;;;;64.40;28.60;;;13.10;93.10;;;;;;5055575;28;20032;-47
2021/09/04 06:19:57;;;;;;;56.53;26.35;;;13.10;93.20;;;;;;5055104;28;20107;-47
2021/09/04 06:22:22;;;;;;;55.45;26.30;;;13.10;93.10;;;;;;5055184;28;20096;-47
2021/09/04 06:24:48;;;;;;;60.03;24.75;;;13.10;92.80;;;;;;5055412;28;20504;-46
2021/09/04 06:27:14;;;;;;;54.40;25.55;;;13.10;93.10;;;;;;5055629;28;20377;-47
2021/09/04 06:29:40;;;;;;;64.22;25.77;;;13.00;93.10;;;;;;5055142;28;20354;-48
2021/09/04 06:32:06;;;;;;;62.80;28.83;;;13.00;93.20;;;;;;5054889;28;20024;-49
2021/09/04 06:34:32;;;;;;;70.30;29.13;;;12.80;93.40;;;;;;5055036;28;20086;-48
2021/09/04 06:36:58;;;;;;;68.50;28.65;;;12.80;93.70;;;;;;5055292;28;20099;-46
2021/09/04 06:39:24;;;;;;;65.97;29.15;;;12.80;93.90;;;;;;5054928;28;20532;-51
2021/09/04 06:41:49;;;;;;;64.85;26.70;;;12.80;94.00;;;;;;5055037;28;20082;-48
2021/09/04 06:44:15;;;;;;;56.05;25.35;;;12.80;94.00;;;;;;5054917;28;20017;-48
2021/09/04 06:46:41;;;;;;;57.78;26.63;;;12.90;93.90;;;;;;5055105;28;20021;-46
2021/09/04 06:49:06;;;;;;;52.90;25.80;;;13.00;94.00;;;;;;5055307;28;20032;-50
2021/09/04 06:51:32;;;;;;;54.40;26.73;;;13.10;93.80;;;;;;5054625;28;20111;-48
2021/09/04 06:53:58;;;;;;;60.47;26.65;;;13.10;93.50;;;;;;5054606;28;20025;-51
2021/09/04 06:56:23;;;;;;;50.80;25.20;;;13.10;93.50;;;;;;5054777;28;20506;-48
2021/09/04 06:58:49;;;;;;;50.33;26.17;;;13.30;93.30;;;;;;5054194;28;20041;-47
2021/09/04 07:01:15;;;;;;;57.90;26.10;;;13.30;92.90;;;;;;5053131;28;20017;-47
2021/09/04 07:03:40;;;;;;;62.80;27.85;;;13.30;92.70;;;;;;5054656;28;20049;-50
2021/09/04 07:06:07;;;;;;;67.35;29.95;;;13.20;92.50;;;;;;5054407;28;20029;-48
2021/09/04 07:08:32;;;;;;;68.72;30.52;;;13.20;92.80;;;;;;5054961;28;20035;-47
2021/09/04 07:10:58;;;;;;;62.47;28.48;;;13.30;92.90;;;;;;5055103;28;20534;-47
2021/09/04 07:13:24;;;;;;;70.30;30.35;;;13.40;92.50;;;;;;5054527;28;20035;-51
2021/09/04 07:15:49;;;;;;;69.05;28.73;;;13.40;92.10;;;;;;5053951;28;20021;-46
2021/09/04 07:18:15;;;;;;;51.55;24.90;;;13.50;92.00;;;;;;5052803;28;20025;-47
2021/09/04 07:20:41;;;;;;;61.28;28.33;;;13.40;91.70;;;;;;5054113;28;20029;-47
2021/09/04 07:23:06;;;;;;;57.00;25.73;;;13.40;91.60;;;;;;5054319;28;20318;-47
2021/09/04 07:25:32;;;;;;;59.55;26.90;;;13.20;92.30;;;;;;5053986;28;20354;-47
2021/09/04 07:27:59;;;;;;;67.70;29.77;;;13.30;92.70;;;;;;5054153;28;20029;-48
2021/09/04 07:30:24;;;;;;;64.32;27.20;;;13.20;92.60;;;;;;5052907;28;20013;-46
2021/09/04 07:32:50;;;;;;;62.17;26.25;;;13.30;92.60;;;;;;5053972;28;20021;-46
2021/09/04 07:35:16;;;;;;;58.42;24.88;;;13.30;92.20;;;;;;5053929;28;20024;-47
2021/09/04 07:37:41;;;;;;;54.65;24.25;;;13.30;92.00;;;;;;5053937;28;20029;-51
2021/09/04 07:40:07;;;;;;;51.58;25.25;;;13.30;92.20;;;;;;5054137;28;20024;-48
2021/09/04 07:42:33;;;;;;;50.38;24.63;;;13.30;92.30;;;;;;5052973;28;20469;-46
2021/09/04 07:44:59;;;;;;;55.97;25.30;;;13.30;92.40;;;;;;5052269;28;20029;-48
2021/09/04 07:47:24;;;;;;;66.35;29.17;;;13.40;92.30;;;;;;5053599;28;20111;-47
2021/09/04 07:49:50;;;;;;;59.65;28.17;;;13.60;91.80;;;;;;5053806;28;20120;-47
2021/09/04 07:52:16;;;;;;;53.50;25.30;;;13.60;91.10;;;;;;5054062;28;20025;-49
2021/09/04 07:54:41;;;;;;;53.50;26.90;;;13.80;90.70;;;;;;5053598;28;20078;-47
2021/09/04 07:57:07;;;;;;;56.30;25.83;;;13.80;90.60;;;;;;5053617;28;20041;-46
2021/09/04 07:59:33;;;;;;;52.83;24.63;;;13.80;90.10;;;;;;5053220;28;20492;-47
2021/09/04 08:01:58;;;;;;;56.05;24.33;;;13.70;90.40;;;;;;5053491;28;20028;-48
2021/09/04 08:04:24;;;;;;;53.97;24.83;;;13.80;90.70;;;;;;5052796;28;20036;-47
2021/09/04 08:06:50;;;;;;;56.42;27.08;;;13.90;90.30;;;;;;5053146;28;20144;-48
2021/09/04 08:09:15;;;;;;;67.28;29.15;;;14.10;89.70;;;;;;5053373;28;20025;-48
2021/09/04 08:11:41;;;;;;;51.35;24.83;;;13.90;89.70;;;;;;5052922;28;20029;-48
2021/09/04 08:14:07;;;;;;;48.08;24.85;;;13.80;89.50;;;;;;5053562;28;20029;-49
2021/09/04 08:16:32;;;;;;;52.17;25.35;;;13.70;89.90;;;;;;5053124;28;20025;-50
2021/09/04 08:18:58;;;;;;;70.57;29.83;;;13.70;90.20;;;;;;5052927;28;20104;-48
2021/09/04 08:21:24;;;;;;;61.83;28.75;;;13.70;90.40;;;;;;5052962;28;20081;-46
2021/09/04 08:23:49;;;;;;;59.92;26.27;;;13.60;90.70;;;;;;5053324;28;20496;-47
2021/09/04 08:26:15;;;;;;;55.75;26.48;;;13.70;90.50;;;;;;5053378;28;20496;-47
2021/09/04 08:28:41;;;;;;;56.47;24.02;;;13.70;91.10;;;;;;5052856;28;20021;-47
2021/09/04 08:31:06;;;;;;;63.47;27.95;;;13.70;91.20;;;;;;5052031;28;20037;-48
2021/09/04 08:33:32;;;;;;;57.85;28.23;;;13.70;91.40;;;;;;5052948;28;20064;-48
2021/09/04 08:35:57;;;;;;;65.35;29.70;;;13.80;91.10;;;;;;5052883;28;20036;-48
2021/09/04 08:38:23;;;;;;;61.60;30.42;;;14.10;90.90;;;;;;5052028;28;20432;-52
2021/09/04 08:40:51;;;;;;;57.58;26.63;;;14.20;89.90;;;;;;5052693;28;20021;-47
2021/09/04 08:43:17;;;;;;;54.67;26.08;;;14.30;89.30;;;;;;5052558;28;20025;-47
2021/09/04 08:45:44;;;;;;;52.72;26.00;;;14.20;89.30;;;;;;5052754;28;20025;-47
2021/09/04 08:48:10;;;;;;;46.83;23.30;;;14.20;88.80;;;;;;5052653;28;20021;-46
2021/09/04 08:50:37;;;;;;;56.13;27.42;;;14.30;88.60;;;;;;5052364;28;20032;-47
2021/09/04 08:53:03;;;;;;;50.42;25.27;;;14.20;89.00;;;;;;5052142;28;20021;-47
2021/09/04 08:55:29;;;;;;;51.80;25.40;;;14.30;88.80;;;;;;5052256;28;20044;-49
2021/09/04 08:57:56;;;;;;;62.05;26.27;;;14.00;89.20;;;;;;5052067;28;20032;-49
2021/09/04 09:00:36;;;;;;;54.75;28.05;;;14.30;89.50;;;;;;5052458;28;20021;-49
2021/09/04 09:03:02;;;;;;;54.53;28.33;;;14.60;88.30;;;;;;5052154;28;20021;-46
2021/09/04 09:05:39;;;;;;;59.28;29.70;;;14.30;88.10;;;;;;5052393;28;20040;-47
2021/09/04 09:08:06;;;;;;;61.67;26.38;;;14.40;88.50;;;;;;5052207;28;20096;-50
2021/09/04 09:10:37;;;;;;;60.28;28.25;;;14.30;88.70;;;;;;5052544;28;20488;-50
2021/09/04 09:13:05;;;;;;;56.55;25.98;;;14.30;88.90;;;;;;5052413;28;20017;-46
2021/09/04 09:15:34;;;;;;;56.50;27.15;;;14.30;89.10;;;;;;5054761;28;20056;-48
2021/09/04 09:18:00;;;;;;;61.28;26.60;;;14.40;88.50;;;;;;5054948;28;20025;-47
2021/09/04 09:20:27;;;;;;;57.15;26.85;;;14.30;88.70;;;;;;5056406;28;20591;-47
2021/09/04 09:22:52;;;;;;;51.75;25.88;;;14.40;89.00;;;;;;5056315;28;20075;-47
2021/09/04 09:25:20;;;;;;;52.17;25.95;;;14.60;88.50;;;;;;5054919;28;20025;-48
2021/09/04 09:27:58;;;;;;;52.60;23.95;;;14.60;87.90;;;;;;5055874;28;20057;-46
2021/09/04 09:30:35;;;;;;;50.67;25.83;;;14.60;88.20;;;;;;5056178;28;20029;-46
2021/09/04 09:33:01;;;;;;;57.47;27.38;;;14.60;88.50;;;;;;5055428;28;20028;-48
2021/09/04 09:35:52;;;;;;;51.88;26.73;;;14.70;88.10;;;;;;5056135;28;20491;-47
2021/09/04 09:38:29;;;;;;;61.25;28.45;;;14.70;88.20;;;;;;5056413;28;20040;-47
2021/09/04 09:40:56;;;;;;;53.25;25.55;;;14.80;87.90;;;;;;5055906;28;20033;-49
2021/09/04 09:43:29;;;;;;;60.35;27.48;;;14.80;87.60;;;;;;5055782;28;20025;-47
2021/09/04 09:46:00;;;;;;;55.53;26.00;;;14.80;88.00;;;;;;5055868;28;20116;-48
2021/09/04 09:48:29;;;;;;;62.95;28.73;;;14.70;88.00;;;;;;5055896;28;20079;-46
2021/09/04 09:50:58;;;;;;;56.42;26.85;;;14.70;88.30;;;;;;5055306;28;20095;-46
2021/09/04 09:53:25;;;;;;;59.17;28.27;;;14.80;88.20;;;;;;5055408;28;20029;-47
2021/09/04 09:55:53;;;;;;;57.88;27.20;;;14.80;88.10;;;;;;5055623;28;20029;-48
2021/09/04 09:58:20;;;;;;;56.47;28.35;;;14.80;88.10;;;;;;5055087;28;20056;-49
2021/09/04 10:00:48;;;;;;;54.63;26.38;;;14.80;87.80;;;;;;5055423;28;20017;-46
2021/09/04 10:03:14;;;;;;;56.75;26.52;;;15.00;87.60;;;;;;5053934;28;20021;-47
2021/09/04 10:05:41;;;;;;;50.38;24.17;;;15.20;86.50;;;;;;5055202;28;20044;-53
2021/09/04 10:08:07;;;;;;;55.92;27.38;;;15.10;86.80;;;;;;5054177;28;20029;-46
2021/09/04 10:10:40;;;;;;;53.83;25.42;;;15.00;87.00;;;;;;5056254;28;20017;-47
2021/09/04 10:13:07;;;;;;;50.55;26.50;;;14.90;86.90;;;;;;5055695;28;20021;-46
2021/09/04 10:15:35;;;;;;;54.80;28.40;;;14.80;87.60;;;;;;5053516;28;20017;-49
2021/09/04 10:18:04;;;;;;;65.78;27.15;;;14.90;87.60;;;;;;5055566;28;20127;-48
2021/09/04 10:20:31;;;;;;;51.22;27.88;;;14.90;87.30;;;;;;5055129;28;20052;-46
2021/09/04 10:23:09;;;;;;;54.72;27.88;;;14.80;87.60;;;;;;5055505;28;20514;-48
2021/09/04 10:25:35;;;;;;;47.90;25.58;;;14.80;87.80;;;;;;5055367;28;20025;-47
2021/09/04 10:28:02;;;;;;;53.47;28.90;;;15.00;87.00;;;;;;5053296;28;20099;-48
2021/09/04 10:30:34;;;;;;;50.20;26.67;;;15.10;86.40;;;;;;5054603;28;20101;-47
2021/09/04 10:33:18;;;;;;;49.60;26.23;;;15.20;86.40;;;;;;5054784;28;20025;-48
2021/09/04 10:35:52;;;;;;;46.40;24.13;;;15.10;86.10;;;;;;5054255;28;20033;-49
2021/09/04 10:38:19;;;;;;;52.85;25.55;;;15.10;86.10;;;;;;5053611;28;20029;-46
2021/09/04 10:40:47;;;;;;;47.33;26.25;;;15.00;86.00;;;;;;5054630;28;20025;-48
2021/09/04 10:43:18;;;;;;;47.45;25.95;;;14.90;86.70;;;;;;5055019;28;20036;-48
2021/09/04 10:45:46;;;;;;;45.28;24.08;;;15.30;85.60;;;;;;5054643;28;20484;-49
2021/09/04 10:48:16;;;;;;;49.92;24.80;;;15.70;84.20;;;;;;5054449;28;20491;-48
2021/09/04 10:50:59;;;;;;;44.35;24.95;;;15.70;84.20;;;;;;5053250;28;20021;-49
2021/09/04 10:53:44;;;;;;;45.30;24.92;;;15.80;83.70;;;;;;5054507;28;20531;-47
2021/09/04 10:56:26;;;;;;;42.53;23.92;;;15.80;83.50;;;;;;5054753;28;20018;-48
2021/09/04 10:58:52;;;;;;;45.47;24.65;;;15.90;83.10;;;;;;5054203;28;20170;-47
2021/09/04 11:01:25;;;;;;;46.65;24.00;;;15.80;84.00;;;;;;5054274;28;20033;-48
2021/09/04 11:03:56;;;;;;;44.58;23.17;;;15.80;83.60;;;;;;5054264;28;20025;-46
2021/09/04 11:06:23;;;;;;;47.35;24.02;;;15.80;83.30;;;;;;5055331;28;20393;-51
2021/09/04 11:08:51;;;;;;;43.90;24.55;;;16.20;82.50;;;;;;5057237;28;20465;-47
2021/09/04 11:11:25;;;;;;;50.65;23.67;;;16.00;82.50;;;;;;5055027;28;20112;-48
2021/09/04 11:13:53;;;;;;;51.67;28.30;;;15.80;83.30;;;;;;5054976;28;20489;-47
2021/09/04 11:16:24;;;;;;;47.53;27.00;;;16.00;83.50;;;;;;5054907;28;20025;-52
2021/09/04 11:18:50;;;;;;;48.92;26.10;;;16.30;82.10;;;;;;5054139;28;20064;-47
2021/09/04 11:21:17;;;;;;;44.33;24.95;;;16.20;82.30;;;;;;5052740;28;20052;-47
2021/09/04 11:23:44;;;;;;;44.28;24.95;;;16.40;81.90;;;;;;5052865;28;20025;-48
2021/09/04 11:26:09;;;;;;;43.58;22.42;;;16.60;80.80;;;;;;5053922;28;20327;-48
2021/09/04 11:28:35;;;;;;;45.05;23.73;;;16.40;81.20;;;;;;5053666;28;20179;-47
2021/09/04 11:31:03;;;;;;;41.08;22.42;;;16.80;79.90;;;;;;5054723;28;20090;-47
2021/09/04 11:33:29;;;;;;;41.90;24.05;;;16.70;79.80;;;;;;5054260;28;20079;-47
2021/09/04 11:35:55;;;;;;;47.15;26.13;;;16.50;80.20;;;;;;5053577;28;20473;-47
2021/09/04 11:38:22;;;;;;;50.88;26.85;;;16.20;81.70;;;;;;5052564;28;20025;-49
2021/09/04 11:40:48;;;;;;;49.00;25.20;;;16.10;82.40;;;;;;5053788;28;20036;-48
2021/09/04 11:43:16;;;;;;;48.40;25.98;;;16.10;82.80;;;;;;5035567;28;20433;-46
2021/09/04 11:45:43;;;;;;;49.17;27.45;;;15.90;82.80;;;;;;5052421;28;20079;-48
2021/09/04 11:48:13;;;;;;;45.63;25.67;;;16.10;82.40;;;;;;5054164;28;20029;-54
2021/09/04 11:50:39;;;;;;;;;;;16.50;81.30;;;;;;5053992;28;20025;-48
2021/09/04 11:53:10;;;;;;;45.17;26.35;;;16.80;80.00;;;;;;5053549;28;19904;-51
2021/09/04 11:55:36;;;;;;;43.70;26.08;;;17.20;78.50;;;;;;5053352;28;20473;-48
2021/09/04 11:58:04;;;;;;;43.10;24.27;;;17.30;77.90;;;;;;5051573;28;20431;-47
2021/09/04 12:00:32;;;;;;;44.55;24.98;;;17.30;77.60;;;;;;5051811;28;20029;-47
2021/09/04 12:03:02;;;;;;;40.17;24.60;;;17.40;77.70;;;;;;5053431;28;20021;-48
2021/09/04 12:05:32;;;;;;;38.53;25.00;;;17.20;78.30;;;;;;5053520;28;20025;-48
2021/09/04 12:08:23;;;;;;;39.80;23.88;;;17.20;78.30;;;;;;5053147;28;20021;-47
2021/09/04 12:10:50;;;;;;;43.88;24.50;;;17.50;77.20;;;;;;5052700;28;20531;-47
2021/09/04 12:13:21;;;;;;;44.83;23.77;;;17.50;76.90;;;;;;5052312;28;20473;-50
2021/09/04 12:15:52;;;;;;;40.92;24.25;;;17.70;76.80;;;;;;5053153;28;20021;-47
2021/09/04 12:18:26;;;;;;;39.08;22.17;;;17.50;76.50;;;;;;5053167;28;20033;-48
2021/09/04 12:20:51;;;;;;;42.55;21.90;;;17.40;76.70;;;;;;5052994;28;20021;-47
2021/09/04 12:23:18;;;;;;;41.47;21.45;;;17.40;76.70;;;;;;5052615;28;20021;-52
2021/09/04 12:25:46;;;;;;;40.75;22.25;;;17.20;77.60;;;;;;5053086;28;20025;-50